Time;durP1;ratioP1;P1;durP2;ratioP2;P2;SDS_P1;SDS_P2;PMS_P1;PMS_P2;Temp;Humidity;BMP_temperature;BMP_pressure;BME280_temperature;BME280_humidity;BME280_pressure;Samples;Min_cycle;Max_cycle;Signal;HPM_P1;HPM_P2
2022/04/18 00:02:25;;;;;;;7.60;6.32;;;6.60;99.90;;;;;;4983000;28;20484;-83
2022/04/18 00:04:51;;;;;;;8.13;6.50;;;7.40;99.90;;;;;;4983605;28;20046;-83
2022/04/18 00:07:17;;;;;;;8.77;6.80;;;6.50;99.90;;;;;;4968481;28;20049;-81
2022/04/18 00:09:42;;;;;;;8.30;6.88;;;6.50;99.90;;;;;;4968689;28;20132;-83
2022/04/18 00:12:08;;;;;;;9.88;7.35;;;7.00;99.90;;;;;;4980125;28;20052;-81
2022/04/18 00:14:34;;;;;;;10.73;8.23;;;6.40;99.90;;;;;;4982930;28;20479;-83
2022/04/18 00:17:00;;;;;;;14.00;10.40;;;6.70;99.90;;;;;;5001065;28;20042;-85
2022/04/18 00:19:26;;;;;;;13.27;10.73;;;6.30;99.90;;;;;;5001951;28;20060;-83
2022/04/18 00:21:52;;;;;;;12.68;8.88;;;6.30;99.90;;;;;;5003966;28;20046;-83
2022/04/18 00:24:20;;;;;;;9.13;7.65;;;6.30;99.90;;;;;;4970364;28;20537;-81
2022/04/18 00:26:47;;;;;;;8.32;7.10;;;6.30;99.90;;;;;;4997570;28;20050;-83
2022/04/18 00:29:13;;;;;;;11.07;8.70;;;6.20;99.90;;;;;;4981715;28;20051;-83
2022/04/18 00:31:39;;;;;;;11.05;8.77;;;6.20;99.90;;;;;;4980711;28;20038;-83
2022/04/18 00:34:05;;;;;;;10.35;8.23;;;6.20;99.90;;;;;;4967801;28;20042;-82
2022/04/18 00:36:31;;;;;;;10.35;8.85;;;6.10;99.90;;;;;;4968486;28;20100;-82
2022/04/18 00:38:58;;;;;;;10.10;7.95;;;6.90;99.90;;;;;;4981145;28;20050;-83
2022/04/18 00:41:23;;;;;;;8.93;7.43;;;6.00;99.90;;;;;;4984162;28;20125;-83
2022/04/18 00:43:50;;;;;;;11.32;8.18;;;6.00;99.90;;;;;;4982501;28;20112;-83
2022/04/18 00:46:18;;;;;;;9.65;7.80;;;6.00;99.90;;;;;;4997552;28;20407;-83
2022/04/18 00:48:44;;;;;;;9.73;7.70;;;5.90;99.90;;;;;;4983421;28;20038;-83
2022/04/18 00:51:13;;;;;;;12.02;9.07;;;5.90;99.90;;;;;;4998364;28;20322;-82
2022/04/18 00:53:41;;;;;;;12.55;8.52;;;5.80;99.90;;;;;;4995292;28;20116;-83
2022/04/18 00:56:08;;;;;;;13.13;8.40;;;5.80;99.90;;;;;;4972083;28;20399;-83
2022/04/18 00:58:35;;;;;;;9.93;7.90;;;6.10;99.90;;;;;;4986805;28;20451;-83
2022/04/18 01:01:01;;;;;;;9.60;8.02;;;5.80;99.90;;;;;;4999611;28;20503;-83
2022/04/18 01:03:30;;;;;;;10.65;7.97;;;5.70;99.90;;;;;;4966047;28;20056;-83
2022/04/18 01:06:04;;;;;;;10.85;8.32;;;5.70;99.90;;;;;;4997642;28;20076;-83
2022/04/18 01:08:32;;;;;;;9.60;8.23;;;5.70;99.90;;;;;;4981108;28;20049;-84
2022/04/18 01:10:59;;;;;;;10.70;8.20;;;6.10;99.90;;;;;;4997442;28;20783;-82
2022/04/18 01:13:24;;;;;;;10.30;8.18;;;5.60;99.90;;;;;;4972369;28;20116;-84
2022/04/18 01:15:57;;;;;;;9.90;7.68;;;5.70;99.90;;;;;;4965859;28;20038;-82
2022/04/18 01:18:23;;;;;;;11.05;8.15;;;5.60;99.90;;;;;;4981835;28;20042;-83
2022/04/18 01:20:49;;;;;;;10.95;8.30;;;5.50;99.90;;;;;;5005894;28;20046;-83
2022/04/18 01:23:17;;;;;;;10.70;8.10;;;6.10;99.90;;;;;;4997458;28;20046;-83
2022/04/18 01:29:00;;;;;;;10.85;8.13;;;5.40;99.90;;;;;;4922932;29;20094;-83
2022/04/18 01:31:34;;;;;;;10.95;8.43;;;5.40;99.90;;;;;;4987890;28;20499;-84
2022/04/18 01:34:01;;;;;;;10.52;7.72;;;5.40;99.90;;;;;;4968133;28;20101;-84
2022/04/18 01:36:28;;;;;;;10.35;8.10;;;5.30;99.90;;;;;;4996591;28;20054;-83
2022/04/18 01:38:54;;;;;;;10.13;7.53;;;5.40;99.90;;;;;;4982328;28;20045;-83
2022/04/18 01:41:21;;;;;;;10.77;8.15;;;5.30;99.90;;;;;;4997635;28;20380;-83
2022/04/18 01:43:46;;;;;;;12.32;8.40;;;5.80;99.90;;;;;;4982215;28;20566;-83
2022/04/18 01:46:14;;;;;;;10.75;8.43;;;5.20;99.90;;;;;;4981215;28;20051;-82
2022/04/18 01:48:40;;;;;;;11.98;8.07;;;5.20;99.90;;;;;;4996389;28;20046;-83
2022/04/18 01:51:06;;;;;;;10.00;7.22;;;5.10;99.90;;;;;;4966069;28;20085;-82
2022/04/18 01:53:32;;;;;;;11.00;8.93;;;4.70;99.90;;;;;;4977227;28;20135;-83
2022/04/18 01:55:58;;;;;;;10.05;7.45;;;5.10;99.90;;;;;;4981583;28;20480;-83
2022/04/18 01:58:24;;;;;;;10.65;8.43;;;5.10;99.90;;;;;;4965988;28;20054;-81
2022/04/18 02:00:50;;;;;;;11.60;8.65;;;5.10;99.90;;;;;;4980676;28;20101;-83
2022/04/18 02:03:16;;;;;;;13.18;8.98;;;5.00;99.90;;;;;;4979994;28;20049;-82
2022/04/18 02:05:43;;;;;;;12.02;8.25;;;5.00;99.90;;;;;;4980481;28;20071;-83
2022/04/18 02:08:09;;;;;;;11.38;8.95;;;5.40;99.90;;;;;;4999143;28;20924;-82
2022/04/18 02:10:35;;;;;;;10.73;8.60;;;5.00;99.90;;;;;;4967649;28;20088;-83
2022/04/18 02:13:01;;;;;;;9.70;8.15;;;4.90;99.90;;;;;;4981331;28;20450;-82
2022/04/18 02:15:27;;;;;;;9.38;8.00;;;4.90;99.90;;;;;;4996918;28;20042;-81
2022/04/18 02:17:52;;;;;;;10.05;8.18;;;4.90;99.90;;;;;;4980749;28;20074;-84
2022/04/18 02:20:18;;;;;;;9.07;7.80;;;4.90;99.90;;;;;;4981747;28;20579;-83
2022/04/18 02:22:44;;;;;;;11.15;8.85;;;4.80;99.90;;;;;;4980465;28;20050;-84
2022/04/18 02:25:10;;;;;;;12.93;8.25;;;4.80;99.90;;;;;;4966732;28;20065;-83
2022/04/18 02:27:36;;;;;;;12.10;8.80;;;4.90;99.90;;;;;;4981587;28;20042;-83
2022/04/18 02:30:05;;;;;;;9.70;8.43;;;4.80;99.90;;;;;;4980080;28;20045;-84
2022/04/18 02:32:47;;;;;;;10.27;8.63;;;4.80;99.90;;;;;;4965957;28;20042;-84
2022/04/18 02:35:14;;;;;;;10.82;8.23;;;4.80;99.90;;;;;;4964708;28;20088;-84
2022/04/18 02:37:39;;;;;;;12.18;9.18;;;4.80;99.90;;;;;;4979314;28;20054;-83
2022/04/18 02:40:06;;;;;;;10.82;8.20;;;5.40;99.90;;;;;;4990050;28;20064;-83
2022/04/18 02:42:32;;;;;;;12.07;9.02;;;4.70;99.90;;;;;;4969595;28;20053;-84
2022/04/18 02:44:58;;;;;;;12.80;8.82;;;4.60;99.90;;;;;;4980594;28;20054;-83
2022/04/18 02:47:23;;;;;;;15.73;9.02;;;4.60;99.90;;;;;;4977897;28;20480;-83
2022/04/18 02:49:52;;;;;;;12.13;9.00;;;4.60;99.90;;;;;;4981629;28;20526;-83
2022/04/18 02:52:18;;;;;;;13.35;8.82;;;4.60;99.90;;;;;;4997699;28;20060;-84
2022/04/18 02:54:44;;;;;;;12.32;9.02;;;5.40;99.90;;;;;;4981163;28;20058;-83
2022/04/18 02:57:13;;;;;;;11.93;8.63;;;5.30;99.90;;;;;;4980716;28;20082;-83
2022/04/18 02:59:40;;;;;;;12.77;8.55;;;4.50;99.90;;;;;;4982313;28;20049;-83
2022/04/18 03:02:06;;;;;;;12.38;8.40;;;4.50;99.90;;;;;;4979146;28;20084;-83
2022/04/18 03:04:32;;;;;;;11.88;8.10;;;4.40;99.90;;;;;;4980343;28;20057;-81
2022/04/18 03:06:57;;;;;;;10.93;8.65;;;4.40;99.90;;;;;;4981577;28;20112;-81
2022/04/18 03:09:23;;;;;;;10.77;8.40;;;5.90;99.90;;;;;;4997344;28;20057;-81
2022/04/18 03:11:49;;;;;;;11.05;8.23;;;4.30;99.90;;;;;;4979149;28;20588;-82
2022/04/18 03:14:14;;;;;;;11.13;8.35;;;4.30;99.90;;;;;;4979111;28;20045;-81
2022/04/18 03:16:40;;;;;;;12.65;8.93;;;4.20;99.90;;;;;;4961310;28;20133;-81
2022/04/18 03:19:06;;;;;;;11.77;9.20;;;4.20;99.90;;;;;;4978265;28;20514;-81
2022/04/18 03:21:32;;;;;;;11.70;8.63;;;4.20;99.90;;;;;;4978965;28;20045;-81
2022/04/18 03:23:57;;;;;;;11.75;8.95;;;4.50;99.90;;;;;;4980570;28;20578;-82
2022/04/18 03:26:23;;;;;;;12.45;9.18;;;4.80;99.90;;;;;;4965172;28;20085;-82
2022/04/18 03:28:49;;;;;;;12.05;9.13;;;4.10;99.90;;;;;;4998117;28;20563;-82
2022/04/18 03:31:14;;;;;;;12.65;9.75;;;4.10;99.90;;;;;;4982988;28;20145;-82
2022/04/18 03:33:40;;;;;;;13.43;9.48;;;4.10;99.90;;;;;;4983978;28;20038;-82
2022/04/18 03:41:34;;;;;;;12.82;9.82;;;4.10;99.90;;;;;;4983749;28;20745;-81
2022/04/18 03:44:00;;;;;;;13.85;9.45;;;4.00;99.90;;;;;;4983011;28;20049;-82
2022/04/18 03:46:25;;;;;;;13.43;9.57;;;3.90;99.90;;;;;;4984889;28;20140;-82
2022/04/18 03:48:51;;;;;;;12.02;9.10;;;4.80;99.90;;;;;;4982151;28;20105;-82
2022/04/18 03:51:17;;;;;;;12.98;8.93;;;3.80;99.90;;;;;;4998950;28;20065;-82
2022/04/18 03:53:42;;;;;;;13.15;10.13;;;3.80;99.90;;;;;;4985846;28;20057;-82
2022/04/18 03:56:08;;;;;;;11.95;9.23;;;4.70;99.90;;;;;;5001214;28;20479;-81
2022/04/18 03:58:34;;;;;;;14.27;9.98;;;3.80;99.90;;;;;;4983967;28;20069;-82
2022/04/18 04:01:00;;;;;;;13.88;9.40;;;3.70;99.90;;;;;;4982340;28;20407;-82
2022/04/18 04:03:26;;;;;;;12.27;9.88;;;5.40;99.90;;;;;;4981163;28;20100;-82
2022/04/18 04:05:53;;;;;;;14.23;10.13;;;3.70;99.90;;;;;;4974183;28;20814;-81
2022/04/18 04:08:22;;;;;;;12.23;9.15;;;4.00;99.90;;;;;;4966199;28;20050;-82
2022/04/18 04:10:52;;;;;;;14.35;9.95;;;3.70;99.90;;;;;;5014197;28;20053;-82
2022/04/18 04:13:17;;;;;;;12.60;10.07;;;3.60;99.90;;;;;;4983526;28;20042;-82
2022/04/18 04:15:43;;;;;;;14.07;10.10;;;3.60;99.90;;;;;;4981201;28;20092;-82
2022/04/18 04:18:09;;;;;;;13.75;10.63;;;3.60;99.90;;;;;;4982664;28;20045;-82
2022/04/18 04:20:35;;;;;;;14.07;9.93;;;3.60;99.90;;;;;;4982353;28;20082;-80
2022/04/18 04:23:00;;;;;;;13.80;10.57;;;3.90;99.90;;;;;;4988674;28;20069;-81
2022/04/18 04:25:26;;;;;;;15.43;9.70;;;3.50;99.90;;;;;;4981901;28;20400;-82
2022/04/18 04:27:52;;;;;;;13.13;10.32;;;3.50;99.90;;;;;;4983806;28;20123;-82
2022/04/18 04:30:18;;;;;;;14.25;10.20;;;3.50;99.90;;;;;;4966230;28;20049;-81
2022/04/18 04:32:43;;;;;;;13.90;10.65;;;3.50;99.90;;;;;;4980180;28;20524;-81
2022/04/18 04:35:09;;;;;;;15.27;10.80;;;3.80;99.90;;;;;;4982369;28;20052;-82
2022/04/18 04:37:35;;;;;;;16.85;10.65;;;4.10;99.90;;;;;;4996914;28;20848;-81
2022/04/18 04:40:01;;;;;;;15.48;10.93;;;3.50;99.90;;;;;;4996501;28;20050;-82
2022/04/18 04:42:26;;;;;;;14.95;10.55;;;3.40;99.90;;;;;;4982089;28;20054;-82
2022/04/18 04:44:52;;;;;;;14.13;10.98;;;3.40;99.90;;;;;;4983185;28;20504;-82
2022/04/18 04:47:18;;;;;;;13.95;10.35;;;3.40;99.90;;;;;;4988294;28;20056;-82
2022/04/18 04:49:43;;;;;;;15.35;11.02;;;4.30;99.90;;;;;;4963042;28;20042;-83
2022/04/18 04:52:09;;;;;;;13.75;10.40;;;4.30;99.90;;;;;;4995899;28;20079;-83
2022/04/18 04:54:35;;;;;;;17.77;11.82;;;3.50;99.90;;;;;;4989600;28;20200;-81
2022/04/18 04:57:02;;;;;;;15.23;11.48;;;4.60;99.90;;;;;;4965299;28;20058;-81
2022/04/18 04:59:28;;;;;;;18.25;12.32;;;3.40;99.90;;;;;;4965847;28;20310;-82
2022/04/18 05:01:53;;;;;;;15.70;12.07;;;3.50;99.90;;;;;;4984651;28;20049;-82
2022/04/18 05:04:19;;;;;;;14.65;12.15;;;4.00;99.90;;;;;;4997779;28;20050;-80
2022/04/18 05:06:45;;;;;;;17.23;11.60;;;4.60;99.90;;;;;;4998189;28;20050;-82
2022/04/18 05:09:11;;;;;;;17.83;12.02;;;3.60;99.90;;;;;;4979521;28;20042;-81
2022/04/18 05:11:37;;;;;;;19.98;12.35;;;3.60;99.90;;;;;;4994850;28;20129;-80
2022/04/18 05:14:02;;;;;;;16.60;11.95;;;3.80;99.90;;;;;;4980041;28;20085;-82
2022/04/18 05:16:28;;;;;;;14.98;11.52;;;4.70;99.90;;;;;;4964697;28;20555;-82
2022/04/18 05:18:54;;;;;;;15.38;11.18;;;4.80;99.90;;;;;;4986667;28;20582;-82
2022/04/18 05:21:19;;;;;;;16.13;11.13;;;5.10;99.90;;;;;;4964998;28;20050;-81
2022/04/18 05:23:45;;;;;;;16.02;12.18;;;3.90;99.90;;;;;;4961266;28;20046;-82
2022/04/18 05:26:11;;;;;;;14.63;11.40;;;3.90;99.90;;;;;;4979440;28;20098;-79
2022/04/18 05:28:37;;;;;;;16.10;12.32;;;4.00;99.90;;;;;;4979236;28;20057;-80
2022/04/18 05:31:03;;;;;;;15.85;12.05;;;4.00;99.90;;;;;;4955018;28;20041;-80
2022/04/18 05:33:28;;;;;;;16.15;11.13;;;4.40;99.90;;;;;;4982124;28;20064;-81
2022/04/18 05:35:54;;;;;;;16.60;12.32;;;4.10;99.90;;;;;;4997619;28;20232;-83
2022/04/18 05:38:20;;;;;;;16.92;11.95;;;4.10;99.90;;;;;;4980849;28;20060;-82
2022/04/18 05:40:46;;;;;;;18.85;13.00;;;4.20;99.90;;;;;;4988377;28;20259;-83
2022/04/18 05:43:12;;;;;;;14.07;11.95;;;4.30;99.90;;;;;;4962180;28;20046;-85
2022/04/18 05:45:53;;;;;;;20.42;13.18;;;4.30;99.90;;;;;;4964767;28;20084;-85
2022/04/18 05:48:19;;;;;;;18.13;13.00;;;4.40;99.90;;;;;;4968604;28;20052;-84
2022/04/18 05:50:46;;;;;;;16.60;12.13;;;4.50;99.90;;;;;;4978330;28;20050;-85
2022/04/18 05:53:13;;;;;;;17.58;12.40;;;4.60;99.90;;;;;;4980031;28;20128;-81
2022/04/18 05:55:39;;;;;;;18.23;12.35;;;6.30;99.90;;;;;;4995529;28;20586;-82
2022/04/18 05:58:05;;;;;;;17.15;12.13;;;4.70;99.90;;;;;;4980167;28;20128;-86
2022/04/18 06:00:37;;;;;;;17.73;12.45;;;4.70;99.90;;;;;;4995946;28;20145;-82
2022/04/18 06:03:03;;;;;;;17.55;12.73;;;4.80;99.90;;;;;;4984216;28;20053;-83
2022/04/18 06:05:28;;;;;;;17.65;12.68;;;4.90;99.90;;;;;;4962072;28;20050;-82
2022/04/18 06:07:54;;;;;;;16.58;11.80;;;5.00;99.90;;;;;;4977235;28;20041;-81
2022/04/18 06:10:21;;;;;;;19.23;13.30;;;5.10;99.90;;;;;;4985926;28;20125;-81
2022/04/18 06:12:47;;;;;;;15.15;12.07;;;5.30;99.90;;;;;;4979049;28;20046;-81
2022/04/18 06:15:13;;;;;;;18.38;12.85;;;6.00;99.90;;;;;;4982514;28;20058;-80
2022/04/18 06:17:39;;;;;;;16.20;12.38;;;5.30;99.90;;;;;;4994180;28;20056;-80
2022/04/18 06:20:05;;;;;;;16.70;12.90;;;5.50;99.90;;;;;;4997649;28;20507;-81
2022/04/18 06:22:31;;;;;;;17.23;12.27;;;5.60;99.90;;;;;;4982219;28;20049;-81
2022/04/18 06:24:57;;;;;;;16.98;12.95;;;6.00;99.90;;;;;;4997175;28;20056;-82
2022/04/18 06:27:22;;;;;;;18.15;12.73;;;5.90;99.90;;;;;;4978335;28;20041;-81
2022/04/18 06:29:48;;;;;;;16.83;12.68;;;6.00;99.90;;;;;;4976731;28;20188;-81
2022/04/18 06:40:24;;;;;;;16.00;12.20;;;6.70;99.90;;;;;;4982768;23;20039;-78
2022/04/18 06:42:50;;;;;;;16.42;12.05;;;7.00;99.90;;;;;;4940259;28;20050;-78
2022/04/18 06:45:16;;;;;;;21.63;12.45;;;7.60;99.90;;;;;;4941857;28;20404;-79
2022/04/18 06:47:42;;;;;;;15.32;11.32;;;7.40;99.90;;;;;;4958667;28;20055;-76
2022/04/18 06:50:11;;;;;;;17.63;11.77;;;7.80;99.90;;;;;;4937786;28;20062;-77
2022/04/18 06:52:38;;;;;;;14.50;11.43;;;7.80;99.90;;;;;;4939564;28;20047;-78
2022/04/18 06:55:04;;;;;;;15.55;12.05;;;8.00;99.90;;;;;;4942402;28;20066;-75
2022/04/18 06:57:30;;;;;;;15.18;11.57;;;8.20;99.90;;;;;;4942263;28;20484;-78
2022/04/18 06:59:56;;;;;;;14.02;10.57;;;8.40;99.90;;;;;;4941903;28;20101;-78
2022/04/18 07:02:21;;;;;;;14.70;10.57;;;8.60;99.90;;;;;;4926839;28;20047;-76
2022/04/18 07:04:49;;;;;;;15.48;11.23;;;8.80;99.90;;;;;;4945797;28;20058;-76
2022/04/18 07:07:15;;;;;;;13.25;10.70;;;9.00;99.90;;;;;;4946257;28;20055;-77
2022/04/18 07:09:41;;;;;;;14.02;10.45;;;9.20;99.90;;;;;;4946013;28;20050;-76
2022/04/18 07:12:07;;;;;;;16.15;11.73;;;9.40;99.90;;;;;;4961517;28;20046;-75
2022/04/18 07:14:36;;;;;;;14.88;11.38;;;9.60;99.90;;;;;;4946907;28;20058;-78
2022/04/18 07:17:02;;;;;;;14.50;10.80;;;9.90;99.90;;;;;;4946106;28;20195;-79
2022/04/18 07:19:28;;;;;;;15.77;11.27;;;10.00;99.90;;;;;;4946313;28;20066;-79
2022/04/18 07:21:55;;;;;;;14.40;10.40;;;10.20;99.90;;;;;;4946366;28;20061;-79
2022/04/18 07:24:23;;;;;;;15.52;11.40;;;10.40;99.90;;;;;;4964090;28;20105;-77
2022/04/18 07:26:48;;;;;;;13.18;10.88;;;10.60;99.90;;;;;;4933798;28;20118;-76
2022/04/18 07:29:15;;;;;;;12.38;10.05;;;10.70;99.90;;;;;;4937860;28;20066;-77
2022/04/18 07:31:41;;;;;;;14.25;10.18;;;10.90;99.90;;;;;;4946757;28;20158;-76
2022/04/18 07:34:06;;;;;;;12.98;9.82;;;11.10;99.90;;;;;;4963162;28;20130;-76
2022/04/18 07:36:32;;;;;;;16.10;9.98;;;11.40;99.90;;;;;;4943340;28;20046;-78
2022/04/18 07:38:58;;;;;;;12.45;9.45;;;11.50;99.90;;;;;;4950653;28;20086;-78
2022/04/18 07:41:26;;;;;;;11.73;9.50;;;11.70;99.90;;;;;;4955602;28;20058;-77
2022/04/18 07:43:53;;;;;;;12.90;9.95;;;11.90;99.90;;;;;;4963765;28;20043;-78
2022/04/18 07:46:19;;;;;;;13.85;9.65;;;12.10;99.90;;;;;;4959760;28;20051;-76
2022/04/18 07:48:48;;;;;;;12.15;9.38;;;12.30;99.90;;;;;;4960977;28;20051;-77
2022/04/18 07:54:00;;;;;;;12.15;8.90;;;12.60;99.90;;;;;;4959929;28;20130;-79
2022/04/18 07:56:26;;;;;;;11.20;9.10;;;12.80;99.90;;;;;;4947952;28;20054;-77
2022/04/18 07:58:53;;;;;;;11.27;9.38;;;13.00;99.90;;;;;;4933676;28;20058;-77
2022/04/18 08:01:20;;;;;;;10.57;8.38;;;13.10;99.90;;;;;;4932883;28;20086;-77
2022/04/18 08:03:47;;;;;;;10.27;8.25;;;13.40;99.90;;;;;;4931750;28;20057;-78
2022/04/18 08:06:14;;;;;;;10.15;8.98;;;13.60;99.90;;;;;;4961385;28;20054;-77
2022/04/18 08:08:40;;;;;;;10.57;8.63;;;13.80;99.90;;;;;;4960335;28;20429;-77
2022/04/18 08:11:11;;;;;;;9.88;8.35;;;14.00;99.90;;;;;;4928347;28;20050;-76
2022/04/18 08:13:43;;;;;;;10.98;8.45;;;14.20;99.90;;;;;;4946398;28;20054;-82
2022/04/18 08:16:10;;;;;;;11.15;8.90;;;14.20;99.50;;;;;;4961280;28;20142;-81
2022/04/18 08:18:38;;;;;;;9.05;7.97;;;14.30;99.40;;;;;;4950753;28;20150;-80
2022/04/18 08:21:04;;;;;;;10.82;8.10;;;14.50;99.20;;;;;;4930442;28;20051;-82
2022/04/18 08:23:33;;;;;;;9.07;7.30;;;14.70;99.00;;;;;;4967724;28;20030;-83
2022/04/18 08:25:59;;;;;;;11.40;8.32;;;14.90;98.30;;;;;;4934042;28;20054;-83
2022/04/18 08:28:26;;;;;;;10.02;7.85;;;15.10;98.60;;;;;;4962105;28;20046;-81
2022/04/18 08:30:52;;;;;;;10.05;8.00;;;15.30;98.90;;;;;;4928570;28;20039;-76
2022/04/18 08:33:18;;;;;;;10.02;7.88;;;15.40;98.70;;;;;;4961679;28;20054;-77
2022/04/18 08:35:44;;;;;;;10.23;7.88;;;15.60;98.50;;;;;;4943261;28;20492;-76
2022/04/18 08:38:10;;;;;;;8.88;7.32;;;15.70;98.60;;;;;;4943806;28;20121;-77
2022/04/18 08:40:37;;;;;;;11.18;7.78;;;15.70;98.30;;;;;;4942896;28;20086;-76
2022/04/18 08:43:03;;;;;;;9.63;8.32;;;15.80;98.10;;;;;;4960166;28;20069;-80
2022/04/18 08:45:29;;;;;;;9.25;7.68;;;15.90;98.20;;;;;;4961011;28;20054;-81
2022/04/18 08:53:27;;;;;;;9.65;6.80;;;16.30;97.60;;;;;;4959010;28;20054;-81
2022/04/18 08:55:54;;;;;;;10.27;6.95;;;16.50;96.90;;;;;;4930111;28;20039;-81
2022/04/18 08:58:23;;;;;;;8.43;6.95;;;16.60;96.70;;;;;;4943726;28;20495;-82
2022/04/18 09:00:50;;;;;;;8.50;6.65;;;16.80;96.60;;;;;;4961859;28;20047;-82
2022/04/18 09:03:16;;;;;;;8.25;6.80;;;17.00;96.20;;;;;;4930618;28;20500;-82
2022/04/18 09:05:42;;;;;;;8.35;6.53;;;17.20;96.10;;;;;;4943725;28;20054;-81
2022/04/18 09:08:09;;;;;;;9.00;6.72;;;17.30;95.50;;;;;;4941650;28;20043;-83
2022/04/18 09:10:36;;;;;;;8.75;5.93;;;17.40;95.40;;;;;;4934319;28;20075;-81
2022/04/18 09:13:13;;;;;;;7.03;6.13;;;17.60;95.00;;;;;;4948197;28;20082;-84
2022/04/18 09:15:46;;;;;;;8.05;6.47;;;17.80;94.50;;;;;;4943539;28;20503;-81
2022/04/18 09:18:23;;;;;;;7.93;6.10;;;18.00;93.70;;;;;;4947800;28;20399;-89
2022/04/18 09:20:56;;;;;;;6.70;5.45;;;17.90;92.80;;;;;;4943271;28;20110;-77
2022/04/18 09:23:33;;;;;;;7.97;5.45;;;18.30;92.10;;;;;;4925849;28;20652;-78
2022/04/18 09:26:04;;;;;;;6.88;5.70;;;18.50;91.60;;;;;;4957469;28;20089;-78
2022/04/18 09:28:33;;;;;;;6.28;5.50;;;18.60;91.40;;;;;;4942740;28;20473;-76
2022/04/18 09:30:59;;;;;;;6.93;5.35;;;18.80;90.50;;;;;;4957964;28;20055;-78
2022/04/18 09:33:32;;;;;;;6.95;5.95;;;18.80;89.50;;;;;;4949529;28;20057;-77
2022/04/18 09:36:24;;;;;;;7.80;5.80;;;19.00;87.40;;;;;;4942679;28;20054;-78
2022/04/18 09:38:55;;;;;;;5.97;4.72;;;19.10;86.80;;;;;;4939977;28;20047;-74
2022/04/18 09:41:31;;;;;;;5.68;4.80;;;19.10;85.50;;;;;;4945176;28;20055;-80
2022/04/18 09:43:57;;;;;;;6.38;5.45;;;19.20;84.60;;;;;;4956241;28;20439;-77
2022/04/18 09:46:24;;;;;;;6.40;5.22;;;19.20;85.30;;;;;;4956749;28;20629;-77
2022/04/18 09:48:51;;;;;;;6.15;4.93;;;19.30;84.10;;;;;;4942961;28;20055;-76
2022/04/18 09:51:35;;;;;;;6.30;4.85;;;19.40;82.00;;;;;;4940487;28;20373;-78
2022/04/18 09:54:03;;;;;;;6.80;5.07;;;19.60;81.00;;;;;;4942522;28;20118;-78
2022/04/18 09:56:29;;;;;;;7.90;4.78;;;19.70;81.40;;;;;;4960449;28;20136;-76
2022/04/18 09:58:58;;;;;;;5.93;4.43;;;19.80;80.30;;;;;;4933605;28;20054;-78
2022/04/18 10:01:25;;;;;;;6.00;4.53;;;19.90;79.00;;;;;;4931476;28;20046;-76
2022/04/18 10:03:52;;;;;;;5.88;4.10;;;20.00;78.40;;;;;;4939905;28;20038;-76
2022/04/18 10:06:19;;;;;;;5.60;4.07;;;20.00;76.90;;;;;;4925757;28;20054;-77
2022/04/18 10:08:46;;;;;;;4.90;3.95;;;20.20;76.10;;;;;;4944039;28;20047;-77
2022/04/18 10:11:12;;;;;;;4.70;3.72;;;20.40;75.50;;;;;;4941347;28;20191;-77
2022/04/18 10:13:38;;;;;;;5.65;4.53;;;20.50;74.50;;;;;;4927155;28;20452;-76
2022/04/18 10:16:06;;;;;;;5.45;3.92;;;20.70;73.80;;;;;;4958416;28;20475;-77
2022/04/18 10:18:54;;;;;;;4.18;3.10;;;20.80;73.00;;;;;;4964118;28;20122;-76
2022/04/18 10:21:28;;;;;;;5.68;3.00;;;21.00;68.70;;;;;;4956133;28;20047;-76
2022/04/18 10:24:07;;;;;;;4.05;3.17;;;21.00;66.00;;;;;;4956873;28;20047;-77
2022/04/18 10:27:18;;;;;;;3.75;2.85;;;21.00;67.30;;;;;;4956664;28;20058;-77
2022/04/18 10:29:53;;;;;;;4.18;2.80;;;21.10;63.90;;;;;;4936566;28;20504;-78
2022/04/18 10:32:25;;;;;;;4.10;2.75;;;21.30;62.80;;;;;;4960984;28;20047;-76
2022/04/18 10:34:59;;;;;;;3.90;2.40;;;21.30;62.70;;;;;;4947376;28;20053;-80
2022/04/18 10:37:27;;;;;;;4.07;2.25;;;21.40;59.30;;;;;;4942502;28;20054;-80
2022/04/18 10:40:16;;;;;;;3.20;2.40;;;21.60;59.60;;;;;;4928141;28;162840;-79
2022/04/18 10:42:41;;;;;;;4.13;2.50;;;21.50;54.90;;;;;;4959240;28;20442;-80
2022/04/18 10:45:14;;;;;;;3.13;2.40;;;21.60;57.70;;;;;;4941272;28;20051;-81
2022/04/18 10:48:24;;;;;;;4.38;2.63;;;21.80;57.80;;;;;;4942425;28;20061;-80
2022/04/18 10:50:51;;;;;;;3.00;2.40;;;21.80;55.70;;;;;;4936999;28;20042;-81
2022/04/18 10:53:37;;;;;;;4.25;2.38;;;21.90;57.20;;;;;;4924994;28;20059;-80
2022/04/18 10:56:08;;;;;;;3.38;2.50;;;21.90;56.30;;;;;;4949745;28;20055;-79
2022/04/18 10:58:37;;;;;;;3.67;2.15;;;22.00;56.80;;;;;;4939643;28;20043;-77
2022/04/18 11:01:11;;;;;;;2.97;2.17;;;22.20;56.10;;;;;;4943040;28;20070;-76
2022/04/18 11:03:46;;;;;;;5.45;2.40;;;22.30;55.30;;;;;;4956483;28;20055;-73
2022/04/18 11:06:18;;;;;;;3.05;2.10;;;22.60;55.20;;;;;;4957578;28;20051;-77
2022/04/18 11:09:07;;;;;;;2.50;1.98;;;22.50;52.50;;;;;;4956216;28;20118;-77
2022/04/18 11:11:37;;;;;;;2.97;2.10;;;22.50;52.50;;;;;;4937290;28;20047;-83
2022/04/18 11:14:24;;;;;;;6.07;2.15;;;22.60;53.10;;;;;;4941956;28;20050;-82
2022/04/18 11:16:55;;;;;;;4.68;2.38;;;22.80;52.40;;;;;;4956333;28;20070;-79
2022/04/18 11:19:38;;;;;;;2.80;2.20;;;23.00;52.50;;;;;;4949429;28;20586;-79
2022/04/18 11:22:21;;;;;;;4.60;2.45;;;23.40;52.30;;;;;;4942052;28;20395;-80
2022/04/18 11:24:47;;;;;;;2.95;2.38;;;23.50;51.60;;;;;;4942340;28;20046;-80
2022/04/18 11:27:22;;;;;;;3.80;2.13;;;23.50;51.80;;;;;;4955636;28;20061;-79
2022/04/18 11:29:56;;;;;;;3.13;2.50;;;23.40;50.10;;;;;;4959773;28;20050;-79
2022/04/18 11:32:45;;;;;;;6.85;2.20;;;23.60;51.50;;;;;;4954966;28;20137;-80
2022/04/18 11:35:14;;;;;;;2.72;1.80;;;23.30;49.50;;;;;;4961098;28;20054;-83
2022/04/18 11:37:45;;;;;;;3.03;2.17;;;23.30;50.10;;;;;;4941325;28;20058;-80
2022/04/18 11:40:16;;;;;;;3.10;2.00;;;23.10;49.80;;;;;;4940010;28;20617;-79
2022/04/18 11:42:43;;;;;;;2.40;1.95;;;23.20;50.20;;;;;;4946668;28;20493;-80
2022/04/18 11:45:19;;;;;;;2.95;2.00;;;23.30;50.20;;;;;;4945776;28;20511;-80
2022/04/18 11:47:47;;;;;;;3.83;2.25;;;23.60;50.20;;;;;;4941216;28;20062;-80
2022/04/18 11:50:21;;;;;;;2.70;2.10;;;23.80;49.80;;;;;;4959474;28;20097;-81
2022/04/18 11:52:48;;;;;;;3.35;1.95;;;23.80;49.20;;;;;;4958867;28;20054;-77
2022/04/18 11:55:19;;;;;;;3.80;2.20;;;23.80;48.90;;;;;;4946345;28;20066;-77
2022/04/18 11:57:47;;;;;;;2.75;2.17;;;23.70;48.30;;;;;;4943712;28;20035;-78
2022/04/18 12:08:44;;;;;;;3.78;2.17;;;24.00;48.10;;;;;;4960504;28;20382;-78
2022/04/18 12:11:10;;;;;;;3.17;2.05;;;23.80;47.70;;;;;;4945258;28;20082;-78
2022/04/18 12:13:47;;;;;;;3.20;2.00;;;23.60;47.70;;;;;;4945306;28;20137;-79
2022/04/18 12:16:19;;;;;;;3.60;1.88;;;23.40;46.20;;;;;;4942928;28;20054;-77
2022/04/18 12:18:45;;;;;;;3.47;1.90;;;23.70;47.70;;;;;;4950792;28;20050;-79
2022/04/18 12:21:15;;;;;;;3.10;1.83;;;23.70;46.90;;;;;;4942500;28;20054;-78
2022/04/18 12:23:40;;;;;;;4.60;2.00;;;23.90;47.00;;;;;;4948953;28;20083;-75
2022/04/18 12:26:14;;;;;;;2.13;1.70;;;23.90;46.70;;;;;;4944608;28;20094;-79
2022/04/18 12:28:40;;;;;;;2.85;2.15;;;24.20;46.20;;;;;;4941535;28;20050;-81
2022/04/18 12:31:10;;;;;;;2.78;1.67;;;24.10;46.30;;;;;;4947802;28;20039;-81
2022/04/18 12:33:48;;;;;;;3.38;2.22;;;24.10;45.60;;;;;;4959575;28;20058;-77
2022/04/18 12:36:30;;;;;;;3.22;1.85;;;24.20;46.80;;;;;;4945456;28;20042;-81
2022/04/18 12:38:56;;;;;;;2.65;1.70;;;24.20;45.80;;;;;;4945208;28;20106;-81
2022/04/18 12:41:30;;;;;;;3.08;1.92;;;24.20;45.80;;;;;;4943073;28;20051;-81
2022/04/18 12:43:57;;;;;;;2.45;1.88;;;24.40;46.50;;;;;;4962035;28;21164;-81
2022/04/18 12:46:30;;;;;;;2.75;1.80;;;24.50;46.60;;;;;;4958627;28;20065;-81
2022/04/18 12:48:56;;;;;;;2.63;1.88;;;24.60;44.40;;;;;;4944808;28;20054;-81
2022/04/18 12:51:42;;;;;;;3.33;1.95;;;24.50;44.70;;;;;;4957598;28;20487;-85
2022/04/18 12:54:22;;;;;;;3.05;1.95;;;24.50;46.40;;;;;;4949034;28;20047;-83
2022/04/18 12:56:50;;;;;;;4.88;2.28;;;24.70;45.60;;;;;;4943280;28;20057;-84
2022/04/18 12:59:27;;;;;;;3.05;2.03;;;24.80;46.40;;;;;;4926337;28;20051;-84
2022/04/18 13:02:04;;;;;;;3.50;2.00;;;24.90;45.40;;;;;;4949757;28;20530;-84
2022/04/18 13:04:30;;;;;;;2.88;2.22;;;25.00;46.00;;;;;;4957678;28;20058;-84
2022/04/18 13:07:02;;;;;;;2.85;2.30;;;25.10;45.60;;;;;;4949478;28;20047;-81
2022/04/18 13:09:28;;;;;;;2.50;1.75;;;25.20;45.30;;;;;;4942086;28;20078;-83
2022/04/18 13:12:06;;;;;;;2.30;1.90;;;25.30;45.10;;;;;;4946294;28;20175;-84
2022/04/18 13:14:34;;;;;;;3.03;2.20;;;25.40;44.50;;;;;;4933268;28;20406;-84
2022/04/18 13:17:07;;;;;;;3.03;2.15;;;25.30;44.40;;;;;;4959727;28;20039;-83
2022/04/18 13:19:33;;;;;;;3.20;1.90;;;25.20;44.40;;;;;;4948952;28;20059;-82
2022/04/18 13:21:59;;;;;;;2.30;1.98;;;25.20;45.00;;;;;;4943058;28;20468;-83
2022/04/18 13:24:25;;;;;;;2.50;2.00;;;25.20;44.90;;;;;;4943031;28;20134;-84